Time;durP1;ratioP1;P1;durP2;ratioP2;P2;SDS_P1;SDS_P2;PMS_P1;PMS_P2;Temp;Humidity;BMP_temperature;BMP_pressure;BME280_temperature;BME280_humidity;BME280_pressure;Samples;Min_cycle;Max_cycle;Signal;HPM_P1;HPM_P2
2021/12/02 00:00:49;;;;;;;2.85;1.35;;;6.40;99.90;;;;;;2678376;28;20213;-66
2021/12/02 00:02:08;;;;;;;1.40;1.27;;;6.40;99.90;;;;;;2679085;28;20761;-66
2021/12/02 00:03:26;;;;;;;2.80;1.17;;;6.40;99.90;;;;;;2678985;28;20209;-66
2021/12/02 00:04:45;;;;;;;1.50;0.80;;;6.40;99.90;;;;;;2681536;28;20305;-66
2021/12/02 00:06:07;;;;;;;1.38;1.27;;;6.40;99.90;;;;;;2690024;28;20213;-66
2021/12/02 00:07:25;;;;;;;1.85;1.20;;;6.40;99.90;;;;;;2690116;28;20346;-66
2021/12/02 00:08:44;;;;;;;1.10;1.10;;;6.30;99.90;;;;;;2689849;28;20963;-66
2021/12/02 00:10:05;;;;;;;1.80;1.50;;;6.30;99.90;;;;;;2689361;28;20217;-66
2021/12/02 00:11:23;;;;;;;1.52;1.42;;;6.30;99.90;;;;;;2687475;28;20244;-66
2021/12/02 00:12:41;;;;;;;0.80;0.80;;;6.30;99.90;;;;;;2675563;28;20222;-66
2021/12/02 00:14:06;;;;;;;1.05;1.05;;;6.20;99.90;;;;;;2678043;28;20320;-66
2021/12/02 00:15:32;;;;;;;0.73;0.73;;;6.20;99.90;;;;;;2679198;28;20213;-66
2021/12/02 00:17:03;;;;;;;1.00;1.00;;;6.20;99.90;;;;;;2679426;28;20227;-66
2021/12/02 00:21:35;;;;;;;1.08;1.08;;;6.10;99.90;;;;;;2676284;28;20202;-66
2021/12/02 00:23:28;;;;;;;1.20;1.10;;;6.00;99.90;;;;;;2673491;28;20574;-66
2021/12/02 00:24:51;;;;;;;1.00;0.77;;;5.90;99.90;;;;;;2678923;28;20427;-66
2021/12/02 00:26:15;;;;;;;1.17;1.17;;;5.90;99.90;;;;;;2679180;28;20666;-67
2021/12/02 00:27:35;;;;;;;0.70;0.70;;;5.80;99.90;;;;;;2678676;28;20282;-66
2021/12/02 00:28:58;;;;;;;0.60;0.60;;;5.90;99.90;;;;;;2678233;28;20201;-66
2021/12/02 00:30:19;;;;;;;0.90;0.90;;;5.80;99.90;;;;;;2677312;28;20229;-66
2021/12/02 00:31:39;;;;;;;0.73;0.73;;;5.80;99.90;;;;;;2677501;28;20203;-66
2021/12/02 00:32:59;;;;;;;1.30;1.00;;;5.80;99.90;;;;;;2674361;28;20453;-66
2021/12/02 00:34:17;;;;;;;0.80;0.80;;;5.80;99.90;;;;;;2671427;28;20230;-66
2021/12/02 00:35:36;;;;;;;0.90;0.90;;;5.70;99.90;;;;;;2676252;28;20663;-66
2021/12/02 00:36:56;;;;;;;1.10;0.82;;;5.70;99.90;;;;;;2678442;28;20609;-66
2021/12/02 00:38:15;;;;;;;0.60;0.60;;;5.70;99.90;;;;;;2679880;28;20623;-66
2021/12/02 00:39:34;;;;;;;1.15;0.60;;;5.70;99.90;;;;;;2680945;28;20206;-66
2021/12/02 00:40:53;;;;;;;0.85;0.85;;;5.60;99.90;;;;;;2680342;28;20204;-66
2021/12/02 00:42:14;;;;;;;1.00;1.00;;;5.70;99.90;;;;;;2681199;28;20210;-66
2021/12/02 00:43:34;;;;;;;0.85;0.85;;;5.70;99.90;;;;;;2680609;28;20205;-66
2021/12/02 00:44:54;;;;;;;0.80;0.80;;;5.70;99.90;;;;;;2680639;28;20215;-66
2021/12/02 00:46:17;;;;;;;1.15;1.15;;;5.70;99.90;;;;;;2676661;28;20265;-66
2021/12/02 00:47:38;;;;;;;1.02;1.02;;;5.70;99.90;;;;;;2670268;28;20199;-66
2021/12/02 00:48:57;;;;;;;0.90;0.90;;;5.70;99.90;;;;;;2670672;28;20922;-66
2021/12/02 00:50:16;;;;;;;0.88;0.88;;;5.70;99.90;;;;;;2669702;28;20216;-66
2021/12/02 00:51:35;;;;;;;1.67;0.95;;;5.60;99.90;;;;;;2670163;28;20207;-66
2021/12/02 00:52:56;;;;;;;0.95;0.95;;;5.60;99.90;;;;;;2670565;28;20678;-66
2021/12/02 00:54:14;;;;;;;1.10;1.10;;;5.60;99.90;;;;;;2679405;28;20209;-66
2021/12/02 00:55:37;;;;;;;1.00;1.00;;;5.60;99.90;;;;;;2680701;28;20579;-66
2021/12/02 00:56:57;;;;;;;1.17;0.90;;;5.70;99.90;;;;;;2680420;28;20613;-66
2021/12/02 00:58:19;;;;;;;0.80;0.80;;;5.70;99.90;;;;;;2680429;28;20272;-67
2021/12/02 00:59:38;;;;;;;0.75;0.60;;;5.70;99.90;;;;;;2680079;28;20204;-66
2021/12/02 01:00:58;;;;;;;0.70;0.70;;;5.70;99.90;;;;;;2680570;28;20213;-66
2021/12/02 01:02:18;;;;;;;0.70;0.70;;;5.70;99.90;;;;;;2681033;28;20267;-66
2021/12/02 01:03:37;;;;;;;0.70;0.70;;;5.70;99.90;;;;;;2681136;28;20792;-66
2021/12/02 01:04:56;;;;;;;0.57;0.57;;;5.70;99.90;;;;;;2680990;28;20233;-66
2021/12/02 01:06:14;;;;;;;0.75;0.75;;;5.70;99.90;;;;;;2680995;28;20210;-66
2021/12/02 01:07:33;;;;;;;0.67;0.67;;;5.60;99.90;;;;;;2681037;28;20236;-66
2021/12/02 01:08:51;;;;;;;0.65;0.65;;;5.60;99.90;;;;;;2680890;28;20208;-66
2021/12/02 01:10:10;;;;;;;0.65;0.65;;;5.70;99.90;;;;;;2680786;28;20213;-66
2021/12/02 01:11:28;;;;;;;0.98;0.70;;;5.70;99.90;;;;;;2680626;28;20217;-66
2021/12/02 01:12:48;;;;;;;0.70;0.70;;;5.60;99.90;;;;;;2680693;28;20323;-66
2021/12/02 01:14:08;;;;;;;1.30;1.00;;;5.60;99.90;;;;;;2670319;28;20451;-66
2021/12/02 01:15:26;;;;;;;0.68;0.60;;;5.50;99.90;;;;;;2670418;28;20225;-66
2021/12/02 01:16:44;;;;;;;0.80;0.80;;;5.40;99.90;;;;;;2670081;28;20574;-66
2021/12/02 01:18:03;;;;;;;0.80;0.80;;;5.40;99.90;;;;;;2670330;28;20214;-66
2021/12/02 01:19:22;;;;;;;1.00;1.00;;;5.30;99.90;;;;;;2670786;28;21032;-66
2021/12/02 01:20:44;;;;;;;0.95;0.90;;;5.30;99.90;;;;;;2675109;28;20264;-66
2021/12/02 01:22:04;;;;;;;2.35;0.60;;;5.20;99.90;;;;;;2676390;28;20297;-66
2021/12/02 01:23:23;;;;;;;0.85;0.85;;;5.10;99.90;;;;;;2680683;28;20212;-66
2021/12/02 01:24:49;;;;;;;1.00;1.00;;;5.10;99.90;;;;;;2680783;28;20215;-66
2021/12/02 01:26:08;;;;;;;1.10;1.10;;;5.10;99.90;;;;;;2680260;28;20194;-66
2021/12/02 01:27:27;;;;;;;1.65;0.80;;;5.10;99.90;;;;;;2680823;28;20237;-66
2021/12/02 01:28:46;;;;;;;0.70;0.70;;;5.00;99.90;;;;;;2679986;28;20201;-66
2021/12/02 01:30:05;;;;;;;1.08;1.00;;;5.00;99.90;;;;;;2678946;28;20216;-66
2021/12/02 01:31:28;;;;;;;1.13;1.10;;;5.00;99.90;;;;;;2680700;28;20217;-66
2021/12/02 01:32:49;;;;;;;0.82;0.82;;;5.00;99.90;;;;;;2680673;28;20574;-66
2021/12/02 01:34:08;;;;;;;2.42;1.00;;;5.00;99.90;;;;;;2680833;28;20216;-67
2021/12/02 01:35:28;;;;;;;0.75;0.75;;;5.00;99.90;;;;;;2680533;28;20236;-66
2021/12/02 01:36:49;;;;;;;0.85;0.80;;;5.00;99.90;;;;;;2684691;28;20208;-66
2021/12/02 01:38:07;;;;;;;0.90;0.90;;;5.00;99.90;;;;;;2680320;28;20279;-66
2021/12/02 01:39:25;;;;;;;0.80;0.80;;;5.00;99.90;;;;;;2671698;28;20448;-66
2021/12/02 01:40:45;;;;;;;2.15;0.95;;;5.00;99.90;;;;;;2678872;28;20702;-66
2021/12/02 01:42:07;;;;;;;1.25;1.08;;;5.00;99.90;;;;;;2680859;28;20205;-66
2021/12/02 01:43:49;;;;;;;0.90;0.90;;;5.00;99.90;;;;;;2680507;28;20232;-66
2021/12/02 01:45:08;;;;;;;3.83;0.90;;;5.00;99.90;;;;;;2680381;28;20245;-66
2021/12/02 01:46:26;;;;;;;0.60;0.60;;;5.00;99.90;;;;;;2678193;28;21037;-67
2021/12/02 01:47:49;;;;;;;4.00;1.00;;;5.00;99.90;;;;;;2673426;28;20527;-66
2021/12/02 01:49:10;;;;;;;0.80;0.80;;;5.10;99.90;;;;;;2680547;28;20983;-66
2021/12/02 01:50:29;;;;;;;0.98;0.98;;;5.10;99.90;;;;;;2679127;28;20607;-66
2021/12/02 01:51:51;;;;;;;1.00;0.95;;;5.10;99.90;;;;;;2679271;28;20562;-66
2021/12/02 01:54:45;;;;;;;0.75;0.75;;;5.20;99.90;;;;;;2680278;28;20241;-66
2021/12/02 01:56:10;;;;;;;1.60;1.42;;;5.20;99.90;;;;;;2673064;28;20202;-66
2021/12/02 01:57:30;;;;;;;1.33;1.27;;;5.20;99.90;;;;;;2669678;28;20210;-66
2021/12/02 01:58:52;;;;;;;0.95;0.95;;;5.30;99.90;;;;;;2674831;28;20983;-66
2021/12/02 02:00:20;;;;;;;1.08;1.08;;;5.30;99.90;;;;;;2669018;28;20211;-66
2021/12/02 02:01:41;;;;;;;2.50;2.30;;;5.30;99.90;;;;;;2673937;28;20267;-66
2021/12/02 02:03:04;;;;;;;2.50;2.33;;;5.30;99.90;;;;;;2680321;28;20352;-67
2021/12/02 02:04:23;;;;;;;2.33;2.22;;;5.30;99.90;;;;;;2680651;28;20628;-66
2021/12/02 02:05:42;;;;;;;3.20;2.72;;;5.30;99.90;;;;;;2679272;28;20231;-66
2021/12/02 02:07:11;;;;;;;2.05;1.95;;;5.40;99.90;;;;;;2679935;28;20979;-66
2021/12/02 02:08:29;;;;;;;2.92;1.52;;;5.40;99.90;;;;;;2679975;28;20245;-66
2021/12/02 02:09:49;;;;;;;1.30;1.20;;;5.40;99.90;;;;;;2679828;28;20208;-66
2021/12/02 02:11:08;;;;;;;1.58;0.80;;;5.40;99.90;;;;;;2680241;28;20220;-67
2021/12/02 02:12:27;;;;;;;0.95;0.95;;;5.40;99.90;;;;;;2680353;28;20200;-66
2021/12/02 02:13:46;;;;;;;1.30;1.23;;;5.40;99.90;;;;;;2679794;28;20204;-67
2021/12/02 02:15:04;;;;;;;1.60;1.10;;;5.40;99.90;;;;;;2680219;28;20202;-67
2021/12/02 02:16:23;;;;;;;2.47;1.15;;;5.40;99.90;;;;;;2679969;28;20201;-66
2021/12/02 02:17:48;;;;;;;1.33;1.23;;;5.40;99.90;;;;;;2680229;28;20363;-66
2021/12/02 02:19:09;;;;;;;2.92;1.00;;;5.40;99.90;;;;;;2680220;28;20544;-66
2021/12/02 02:20:48;;;;;;;2.15;1.23;;;5.30;99.90;;;;;;2680132;28;20205;-66
2021/12/02 02:22:07;;;;;;;0.85;0.85;;;5.30;99.90;;;;;;2683351;28;20264;-66
2021/12/02 02:23:27;;;;;;;0.80;0.80;;;5.40;99.90;;;;;;2679613;28;20201;-67
2021/12/02 02:24:46;;;;;;;1.00;0.90;;;5.30;99.90;;;;;;2680020;28;20209;-67
2021/12/02 02:26:06;;;;;;;0.90;0.90;;;5.30;99.90;;;;;;2680381;28;20205;-67
2021/12/02 02:27:25;;;;;;;1.20;1.20;;;5.20;99.90;;;;;;2680046;28;20742;-67
2021/12/02 02:28:43;;;;;;;2.15;1.20;;;5.20;99.90;;;;;;2679902;28;20217;-67
2021/12/02 02:30:02;;;;;;;1.60;1.50;;;5.20;99.90;;;;;;2678356;28;20212;-66
2021/12/02 02:31:21;;;;;;;1.58;1.20;;;5.20;99.90;;;;;;2680084;28;20738;-67
2021/12/02 02:32:40;;;;;;;1.83;1.02;;;5.10;99.90;;;;;;2676563;28;20260;-67
2021/12/02 02:33:59;;;;;;;1.40;1.30;;;5.10;99.90;;;;;;2669803;28;20682;-67
2021/12/02 02:35:18;;;;;;;0.93;0.93;;;5.10;99.90;;;;;;2669852;28;20256;-67
2021/12/02 02:36:40;;;;;;;1.33;1.17;;;5.10;99.90;;;;;;2678694;28;20216;-67
2021/12/02 02:38:00;;;;;;;0.77;0.77;;;5.00;99.90;;;;;;2679844;28;20255;-67
2021/12/02 02:39:19;;;;;;;1.35;0.85;;;5.10;99.90;;;;;;2679899;28;20561;-66
2021/12/02 02:40:39;;;;;;;1.30;1.00;;;5.10;99.90;;;;;;2678783;28;20205;-66
2021/12/02 02:41:59;;;;;;;1.02;1.02;;;5.10;99.90;;;;;;2680091;28;20701;-67
2021/12/02 02:43:23;;;;;;;1.15;0.98;;;5.00;99.90;;;;;;2679984;28;20689;-67
2021/12/02 02:44:41;;;;;;;1.55;1.45;;;4.90;99.90;;;;;;2679097;28;20626;-67
2021/12/02 02:45:59;;;;;;;1.55;1.00;;;4.90;99.90;;;;;;2677938;28;20259;-67
2021/12/02 02:47:18;;;;;;;1.88;1.08;;;4.90;99.90;;;;;;2677371;28;20654;-67
2021/12/02 02:48:36;;;;;;;1.13;1.00;;;5.00;99.90;;;;;;2669261;28;20248;-66
2021/12/02 02:49:55;;;;;;;1.20;1.10;;;5.00;99.90;;;;;;2669033;28;21022;-67
2021/12/02 02:51:14;;;;;;;1.20;0.85;;;4.90;99.90;;;;;;2677718;28;20204;-66
2021/12/02 02:52:33;;;;;;;0.88;0.88;;;4.90;99.90;;;;;;2679596;28;20220;-66
2021/12/02 02:53:55;;;;;;;0.95;0.95;;;4.90;99.90;;;;;;2680018;28;20208;-67
2021/12/02 02:55:18;;;;;;;0.80;0.80;;;4.90;99.90;;;;;;2679754;28;20726;-67
2021/12/02 02:56:43;;;;;;;1.20;1.10;;;4.90;99.90;;;;;;2679624;28;20734;-67
2021/12/02 02:58:06;;;;;;;1.45;1.45;;;4.80;99.90;;;;;;2680045;28;20635;-67
2021/12/02 02:59:39;;;;;;;1.38;1.38;;;4.80;99.90;;;;;;2679425;28;20325;-67
2021/12/02 03:01:03;;;;;;;3.38;3.08;;;4.80;99.90;;;;;;2678828;28;20288;-66
2021/12/02 03:02:27;;;;;;;3.95;3.22;;;4.70;99.90;;;;;;2679485;28;20298;-66
2021/12/02 03:03:54;;;;;;;2.47;2.28;;;4.60;99.90;;;;;;2679936;28;20190;-66
2021/12/02 03:05:22;;;;;;;1.85;1.73;;;4.60;99.90;;;;;;2678614;28;20583;-67
2021/12/02 03:06:49;;;;;;;2.00;1.90;;;4.60;99.90;;;;;;2679323;28;20196;-66
2021/12/02 03:08:14;;;;;;;3.70;3.40;;;4.50;99.90;;;;;;2669276;28;20285;-67
2021/12/02 03:09:48;;;;;;;3.30;3.10;;;4.50;99.90;;;;;;2672042;28;20217;-67
2021/12/02 03:11:09;;;;;;;3.83;3.33;;;4.50;99.90;;;;;;2679247;28;20209;-66
2021/12/02 03:12:31;;;;;;;2.38;2.17;;;4.50;99.90;;;;;;2679529;28;20215;-67
2021/12/02 03:13:51;;;;;;;2.00;1.40;;;4.40;99.90;;;;;;2679116;28;20207;-67
2021/12/02 03:16:47;;;;;;;1.70;1.60;;;4.30;99.90;;;;;;2638456;28;20724;-67
2021/12/02 03:18:04;;;;;;;1.15;1.15;;;4.30;99.90;;;;;;2679982;28;20213;-66
2021/12/02 03:19:28;;;;;;;1.92;1.50;;;4.20;99.90;;;;;;2679611;28;20229;-67
2021/12/02 03:20:47;;;;;;;1.42;1.30;;;4.30;99.90;;;;;;2681733;28;20717;-66
2021/12/02 03:22:06;;;;;;;1.33;1.23;;;4.20;99.90;;;;;;2690239;28;20238;-67
2021/12/02 03:23:25;;;;;;;3.53;1.73;;;4.20;99.90;;;;;;2680813;28;20203;-66
2021/12/02 03:24:43;;;;;;;1.60;1.50;;;4.20;99.90;;;;;;2679498;28;20270;-67
2021/12/02 03:26:01;;;;;;;1.67;1.20;;;4.20;99.90;;;;;;2679885;28;20559;-67
2021/12/02 03:27:20;;;;;;;1.35;1.30;;;4.20;99.90;;;;;;2679690;28;20211;-67
2021/12/02 03:28:38;;;;;;;1.20;1.20;;;4.20;99.90;;;;;;2679528;28;20212;-66
2021/12/02 03:29:57;;;;;;;1.20;1.10;;;4.20;99.90;;;;;;2677034;28;20208;-67
2021/12/02 03:31:17;;;;;;;1.30;1.20;;;4.20;99.90;;;;;;2679252;28;20205;-66
2021/12/02 03:32:37;;;;;;;1.70;1.60;;;4.20;99.90;;;;;;2679427;28;20657;-67
2021/12/02 03:33:56;;;;;;;1.25;1.15;;;4.20;99.90;;;;;;2679367;28;20239;-66
2021/12/02 03:35:15;;;;;;;1.45;1.35;;;4.20;99.90;;;;;;2679278;28;20203;-67
2021/12/02 03:36:33;;;;;;;1.17;1.17;;;4.20;99.90;;;;;;2679315;28;20206;-67
2021/12/02 03:37:52;;;;;;;1.10;1.10;;;4.20;99.90;;;;;;2678995;28;20202;-67
2021/12/02 03:39:12;;;;;;;1.73;1.33;;;4.20;99.90;;;;;;2679266;28;20292;-66
2021/12/02 03:40:30;;;;;;;1.25;1.20;;;4.20;99.90;;;;;;2678431;28;20259;-67
2021/12/02 03:41:49;;;;;;;1.70;1.30;;;4.20;99.90;;;;;;2679468;28;20399;-66
2021/12/02 03:43:08;;;;;;;1.33;1.25;;;4.30;99.90;;;;;;2679281;28;20205;-66
2021/12/02 03:44:27;;;;;;;1.30;1.20;;;4.30;99.90;;;;;;2678899;28;20219;-67
2021/12/02 03:45:45;;;;;;;1.98;1.88;;;4.30;99.90;;;;;;2674703;28;20212;-67
2021/12/02 03:47:04;;;;;;;1.75;1.65;;;4.30;99.90;;;;;;2672477;28;20296;-67
2021/12/02 03:48:22;;;;;;;1.83;1.40;;;4.20;99.90;;;;;;2668798;28;20256;-67
2021/12/02 03:49:41;;;;;;;1.70;1.60;;;4.30;99.90;;;;;;2671571;28;20236;-67
2021/12/02 03:51:00;;;;;;;1.65;1.55;;;4.30;99.90;;;;;;2670178;28;20783;-66
2021/12/02 03:52:19;;;;;;;2.15;1.75;;;4.30;99.90;;;;;;2677574;28;20204;-66
2021/12/02 03:53:37;;;;;;;1.77;1.67;;;4.20;99.90;;;;;;2679477;28;20214;-67
2021/12/02 03:54:56;;;;;;;1.38;1.30;;;4.30;99.90;;;;;;2680476;28;20290;-66
2021/12/02 03:56:15;;;;;;;1.20;1.20;;;4.30;99.90;;;;;;2679630;28;20207;-66
2021/12/02 03:57:34;;;;;;;1.42;1.33;;;4.30;99.90;;;;;;2679234;28;20239;-66
2021/12/02 03:58:54;;;;;;;1.20;1.20;;;4.30;99.90;;;;;;2679233;28;20270;-67
2021/12/02 04:00:13;;;;;;;2.38;1.70;;;4.30;99.90;;;;;;2679209;28;20263;-67
2021/12/02 04:01:32;;;;;;;1.70;1.60;;;4.40;99.90;;;;;;2668890;28;20210;-66
2021/12/02 04:02:51;;;;;;;2.45;1.70;;;4.40;99.90;;;;;;2668644;28;20265;-66
2021/12/02 04:04:10;;;;;;;1.65;1.55;;;4.30;99.90;;;;;;2669149;28;20248;-67
2021/12/02 04:05:28;;;;;;;1.58;1.33;;;4.30;99.90;;;;;;2677153;28;20645;-67
2021/12/02 04:06:46;;;;;;;1.75;1.65;;;4.40;99.90;;;;;;2678380;28;20236;-66
2021/12/02 04:08:05;;;;;;;1.40;1.30;;;4.30;99.90;;;;;;2678219;28;20244;-66
2021/12/02 04:09:26;;;;;;;1.77;1.17;;;4.30;99.90;;;;;;2679372;28;20662;-67
2021/12/02 04:10:45;;;;;;;1.00;0.90;;;4.30;99.90;;;;;;2677437;28;20602;-67
2021/12/02 04:12:08;;;;;;;0.77;0.77;;;4.30;99.90;;;;;;2679129;28;20815;-67
2021/12/02 04:13:30;;;;;;;1.05;0.98;;;4.30;99.90;;;;;;2678920;28;20201;-67
2021/12/02 04:14:53;;;;;;;1.23;1.13;;;4.40;99.90;;;;;;2679386;28;20215;-67
2021/12/02 04:16:16;;;;;;;1.35;1.00;;;4.40;99.90;;;;;;2678705;28;20195;-67
2021/12/02 04:17:42;;;;;;;2.97;1.75;;;4.40;99.90;;;;;;2678858;28;20220;-67
2021/12/02 04:19:00;;;;;;;2.20;1.30;;;4.40;99.90;;;;;;2679210;28;20347;-67
2021/12/02 04:20:23;;;;;;;1.20;1.15;;;4.40;99.90;;;;;;2677494;28;20234;-67
2021/12/02 04:21:41;;;;;;;1.65;1.40;;;4.40;99.90;;;;;;2686108;28;20196;-67
2021/12/02 04:23:00;;;;;;;1.40;1.40;;;4.40;99.90;;;;;;2673102;28;20257;-67
2021/12/02 04:24:19;;;;;;;1.45;1.35;;;4.50;99.90;;;;;;2676593;28;20201;-67
2021/12/02 04:25:37;;;;;;;1.50;1.40;;;4.50;99.90;;;;;;2678837;28;20219;-67
2021/12/02 04:26:56;;;;;;;1.70;1.60;;;4.40;99.90;;;;;;2679359;28;20289;-67
2021/12/02 04:28:14;;;;;;;1.65;1.40;;;4.50;99.90;;;;;;2679274;28;20208;-67
2021/12/02 04:29:33;;;;;;;1.42;1.27;;;4.50;99.90;;;;;;2677860;28;20216;-67
2021/12/02 04:30:51;;;;;;;1.35;1.35;;;4.50;99.90;;;;;;2678249;28;20205;-67
2021/12/02 04:32:10;;;;;;;1.60;1.30;;;4.50;99.90;;;;;;2679296;28;20222;-66
2021/12/02 04:33:29;;;;;;;1.13;1.13;;;4.50;99.90;;;;;;2679061;28;20209;-67
2021/12/02 04:34:48;;;;;;;1.27;1.17;;;4.50;99.90;;;;;;2678865;28;20235;-67
2021/12/02 04:36:07;;;;;;;1.40;1.30;;;4.60;99.90;;;;;;2679010;28;20448;-67
2021/12/02 04:37:25;;;;;;;1.30;1.20;;;4.60;99.90;;;;;;2678612;28;20201;-67
2021/12/02 04:38:45;;;;;;;1.60;1.50;;;4.60;99.90;;;;;;2678857;28;20216;-67
2021/12/02 04:40:04;;;;;;;1.35;1.10;;;4.60;99.90;;;;;;2678649;28;20509;-67
2021/12/02 04:41:22;;;;;;;2.63;1.13;;;4.50;99.90;;;;;;2679142;28;20208;-67
2021/12/02 04:42:40;;;;;;;1.17;1.10;;;4.50;99.90;;;;;;2679107;28;20306;-67
2021/12/02 04:43:59;;;;;;;1.23;1.23;;;4.50;99.90;;;;;;2679292;28;20997;-67
2021/12/02 04:45:18;;;;;;;2.15;1.27;;;4.60;99.90;;;;;;2678398;28;20253;-67
2021/12/02 04:46:37;;;;;;;1.13;1.13;;;4.60;99.90;;;;;;2671944;28;20681;-67
2021/12/02 04:47:55;;;;;;;2.72;1.23;;;4.60;99.90;;;;;;2675236;28;20255;-67
2021/12/02 04:49:14;;;;;;;1.00;1.00;;;4.60;99.90;;;;;;2678694;28;20624;-67
2021/12/02 04:50:33;;;;;;;1.50;1.33;;;4.70;99.90;;;;;;2677906;28;20208;-67
2021/12/02 04:51:52;;;;;;;1.30;1.27;;;4.70;99.90;;;;;;2678820;28;20212;-67
2021/12/02 04:53:11;;;;;;;2.55;1.33;;;4.70;99.90;;;;;;2678698;28;20200;-67
2021/12/02 04:54:29;;;;;;;2.00;1.20;;;4.70;99.90;;;;;;2679084;28;20667;-67
2021/12/02 04:55:47;;;;;;;1.00;1.00;;;4.60;99.90;;;;;;2675817;28;20209;-67
2021/12/02 04:57:06;;;;;;;1.10;1.10;;;4.60;99.90;;;;;;2678066;28;20512;-67
2021/12/02 04:58:24;;;;;;;1.05;1.05;;;4.60;99.90;;;;;;2671351;28;20204;-67
2021/12/02 04:59:42;;;;;;;1.27;1.27;;;4.60;99.90;;;;;;2678700;28;20259;-67
2021/12/02 05:01:01;;;;;;;1.40;1.30;;;4.60;99.90;;;;;;2678938;28;20270;-67
2021/12/02 05:02:20;;;;;;;1.15;1.15;;;4.70;99.90;;;;;;2679273;28;20211;-67
2021/12/02 05:03:38;;;;;;;0.90;0.90;;;4.70;99.90;;;;;;2679076;28;20202;-67
2021/12/02 05:04:57;;;;;;;0.90;0.90;;;4.70;99.90;;;;;;2678849;28;20266;-67
2021/12/02 05:06:15;;;;;;;0.93;0.93;;;4.80;99.90;;;;;;2678893;28;20202;-67
2021/12/02 05:07:34;;;;;;;1.30;1.30;;;4.70;99.90;;;;;;2678515;28;20209;-67
2021/12/02 05:08:53;;;;;;;1.25;1.20;;;4.70;99.90;;;;;;2678924;28;20211;-67
2021/12/02 05:10:11;;;;;;;1.05;1.02;;;4.70;99.90;;;;;;2678018;28;20271;-67
2021/12/02 05:11:29;;;;;;;1.67;1.57;;;4.70;99.90;;;;;;2678517;28;20741;-67
2021/12/02 05:12:49;;;;;;;1.30;1.30;;;4.70;99.90;;;;;;2678935;28;20463;-67
2021/12/02 05:14:08;;;;;;;1.17;1.15;;;4.70;99.90;;;;;;2678849;28;20212;-67
2021/12/02 05:15:26;;;;;;;1.40;1.30;;;4.70;99.90;;;;;;2678772;28;20617;-67
2021/12/02 05:16:45;;;;;;;2.30;1.63;;;4.70;99.90;;;;;;2678780;28;20235;-67
2021/12/02 05:18:03;;;;;;;1.30;1.30;;;4.80;99.90;;;;;;2679141;28;21133;-67
2021/12/02 05:19:22;;;;;;;1.50;1.40;;;4.80;99.90;;;;;;2679070;28;20675;-67
2021/12/02 05:20:40;;;;;;;1.60;1.50;;;4.70;99.90;;;;;;2679408;28;20254;-67
2021/12/02 05:21:59;;;;;;;1.55;1.45;;;4.70;99.90;;;;;;2677925;28;20204;-67
2021/12/02 05:23:18;;;;;;;1.58;1.48;;;4.80;99.90;;;;;;2678526;28;20242;-67
2021/12/02 05:24:37;;;;;;;2.85;1.55;;;4.70;99.90;;;;;;2678949;28;20206;-67
2021/12/02 05:25:56;;;;;;;1.50;1.27;;;4.80;99.90;;;;;;2680136;28;20255;-67
2021/12/02 05:27:15;;;;;;;1.55;1.42;;;4.80;99.90;;;;;;2680724;28;20258;-67
2021/12/02 05:28:34;;;;;;;1.15;1.10;;;4.80;99.90;;;;;;2680859;28;20209;-67
2021/12/02 05:29:52;;;;;;;1.98;1.58;;;4.80;99.90;;;;;;2678195;28;20212;-67
2021/12/02 05:31:10;;;;;;;1.40;1.40;;;4.70;99.90;;;;;;2680535;28;20214;-67
2021/12/02 05:32:30;;;;;;;2.75;1.77;;;4.70;99.90;;;;;;2680621;28;20682;-66
2021/12/02 05:33:49;;;;;;;1.85;1.75;;;4.70;99.90;;;;;;2680786;28;20205;-67
2021/12/02 05:35:08;;;;;;;1.90;1.70;;;4.70;99.90;;;;;;2680088;28;20459;-67
2021/12/02 05:36:27;;;;;;;1.67;1.55;;;4.70;99.90;;;;;;2690214;28;20228;-67
2021/12/02 05:37:46;;;;;;;1.58;1.48;;;4.80;99.90;;;;;;2691411;28;20267;-67
2021/12/02 05:39:05;;;;;;;2.55;2.05;;;4.80;99.90;;;;;;2691262;28;20326;-67
2021/12/02 05:40:24;;;;;;;1.73;1.63;;;4.70;99.90;;;;;;2690700;28;20236;-67
2021/12/02 05:41:43;;;;;;;2.60;2.35;;;4.70;99.90;;;;;;2691336;28;20664;-67
2021/12/02 05:43:02;;;;;;;2.17;2.08;;;4.70;99.90;;;;;;2683619;28;20212;-67
2021/12/02 05:44:24;;;;;;;2.53;2.25;;;4.70;99.90;;;;;;2680581;28;20227;-67
2021/12/02 05:45:43;;;;;;;4.20;1.92;;;4.70;99.90;;;;;;2680668;28;20235;-67
2021/12/02 05:47:01;;;;;;;2.28;1.92;;;4.70;99.90;;;;;;2676427;28;20643;-67
2021/12/02 05:48:20;;;;;;;2.10;2.00;;;4.70;99.90;;;;;;2671527;28;20212;-67
2021/12/02 05:49:38;;;;;;;2.00;1.90;;;4.70;99.90;;;;;;2678823;28;20194;-67
2021/12/02 05:50:57;;;;;;;2.00;1.90;;;4.70;99.90;;;;;;2679851;28;20208;-67
2021/12/02 05:52:16;;;;;;;2.30;2.05;;;4.70;99.90;;;;;;2680675;28;20213;-67
2021/12/02 05:53:34;;;;;;;2.40;2.00;;;4.70;99.90;;;;;;2680560;28;20240;-67
2021/12/02 05:54:53;;;;;;;2.78;2.38;;;4.70;99.90;;;;;;2680311;28;20267;-67
2021/12/02 05:56:12;;;;;;;2.53;2.05;;;4.70;99.90;;;;;;2680249;28;20211;-66
2021/12/02 05:57:31;;;;;;;2.70;1.98;;;4.70;99.90;;;;;;2680122;28;20662;-67
2021/12/02 05:58:50;;;;;;;1.77;1.67;;;4.70;99.90;;;;;;2678814;28;20216;-66
2021/12/02 06:00:09;;;;;;;1.70;1.60;;;4.70;99.90;;;;;;2679254;28;20701;-66
2021/12/02 06:01:28;;;;;;;2.50;1.70;;;4.70;99.90;;;;;;2678445;28;20217;-66
2021/12/02 06:02:47;;;;;;;1.88;1.77;;;4.70;99.90;;;;;;2673015;28;20260;-66
2021/12/02 06:04:05;;;;;;;1.30;1.20;;;4.70;99.90;;;;;;2676553;28;20235;-67
2021/12/02 06:05:24;;;;;;;1.77;1.67;;;4.60;99.90;;;;;;2680637;28;20215;-67
2021/12/02 06:06:42;;;;;;;2.15;1.60;;;4.60;99.90;;;;;;2680287;28;20208;-66
2021/12/02 06:08:03;;;;;;;2.13;1.90;;;4.60;99.90;;;;;;2680599;28;20301;-67
2021/12/02 06:09:22;;;;;;;3.55;1.90;;;4.60;99.90;;;;;;2680318;28;20236;-67
2021/12/02 06:10:41;;;;;;;1.25;1.23;;;4.70;99.90;;;;;;2679465;28;20294;-67
2021/12/02 06:11:59;;;;;;;1.60;1.50;;;4.60;99.90;;;;;;2680564;28;20314;-67
2021/12/02 06:13:18;;;;;;;1.90;1.80;;;4.60;99.90;;;;;;2679921;28;20656;-67
2021/12/02 06:14:37;;;;;;;1.60;1.50;;;4.60;99.90;;;;;;2679982;28;20192;-67
2021/12/02 06:15:55;;;;;;;3.35;1.80;;;4.60;99.90;;;;;;2680218;28;20260;-67
2021/12/02 06:17:14;;;;;;;1.33;1.33;;;4.60;99.90;;;;;;2680120;28;20208;-67
2021/12/02 06:18:33;;;;;;;1.35;1.35;;;4.60;99.90;;;;;;2679761;28;20214;-67
2021/12/02 06:19:51;;;;;;;1.70;1.15;;;4.60;99.90;;;;;;2678826;28;20208;-66
2021/12/02 06:21:10;;;;;;;1.10;1.10;;;4.60;99.90;;;;;;2687193;28;20203;-67
2021/12/02 06:22:28;;;;;;;1.20;1.20;;;4.60;99.90;;;;;;2680828;28;20204;-68
2021/12/02 06:23:47;;;;;;;2.80;1.30;;;4.60;99.90;;;;;;2679834;28;20287;-69
2021/12/02 06:25:44;;;;;;;1.00;1.00;;;4.60;99.90;;;;;;2680208;28;20218;-69
2021/12/02 06:26:56;;;;;;;0.80;0.80;;;4.50;99.90;;;;;;2678505;28;20296;-69
2021/12/02 06:28:16;;;;;;;3.25;0.95;;;4.40;99.90;;;;;;2676529;28;20669;-69
2021/12/02 06:29:35;;;;;;;1.15;1.08;;;4.40;99.90;;;;;;2672182;28;20833;-68
2021/12/02 06:30:54;;;;;;;0.80;0.73;;;4.40;99.90;;;;;;2671323;28;21169;-70
2021/12/02 06:32:12;;;;;;;0.80;0.80;;;4.50;99.90;;;;;;2669562;28;20204;-69
2021/12/02 06:33:31;;;;;;;0.90;0.90;;;4.50;99.90;;;;;;2679633;28;20665;-69
2021/12/02 06:34:50;;;;;;;1.10;1.10;;;4.40;99.90;;;;;;2680288;28;20209;-70
2021/12/02 06:36:09;;;;;;;0.80;0.80;;;4.30;99.90;;;;;;2679759;28;20689;-69
2021/12/02 06:37:28;;;;;;;1.50;0.85;;;4.30;99.90;;;;;;2679883;28;20239;-69
2021/12/02 06:38:46;;;;;;;1.00;0.90;;;4.20;99.90;;;;;;2680193;28;20220;-69
2021/12/02 06:40:07;;;;;;;1.00;1.00;;;4.20;99.90;;;;;;2679248;28;20318;-69
2021/12/02 06:41:25;;;;;;;1.10;1.10;;;4.20;99.90;;;;;;2679641;28;20724;-69
2021/12/02 06:42:44;;;;;;;1.70;1.60;;;4.10;99.90;;;;;;2679924;28;20255;-69
2021/12/02 06:44:03;;;;;;;1.50;1.40;;;4.10;99.90;;;;;;2680336;28;20267;-69
2021/12/02 06:45:22;;;;;;;2.30;2.20;;;4.10;99.90;;;;;;2679920;28;20584;-69
2021/12/02 06:46:41;;;;;;;7.95;2.55;;;4.10;99.90;;;;;;2672986;28;20251;-69
2021/12/02 06:47:59;;;;;;;4.07;3.25;;;4.10;99.90;;;;;;2669598;28;20739;-69
2021/12/02 06:49:18;;;;;;;3.00;2.80;;;4.10;99.90;;;;;;2669064;28;20662;-69
2021/12/02 06:50:37;;;;;;;2.72;2.53;;;4.10;99.90;;;;;;2671732;28;20211;-69
2021/12/02 06:51:56;;;;;;;2.45;2.25;;;4.00;99.90;;;;;;2679345;28;20209;-69
2021/12/02 06:53:17;;;;;;;1.63;1.52;;;4.10;99.90;;;;;;2679813;28;20677;-69
2021/12/02 06:54:35;;;;;;;1.60;1.30;;;4.00;99.90;;;;;;2679145;28;20212;-68
2021/12/02 06:55:54;;;;;;;1.00;1.00;;;4.00;99.90;;;;;;2679059;28;20203;-69
2021/12/02 06:57:12;;;;;;;4.05;1.48;;;4.00;99.90;;;;;;2679750;28;20208;-69
2021/12/02 06:58:31;;;;;;;1.25;1.15;;;4.10;99.90;;;;;;2679778;28;20213;-70
2021/12/02 06:59:49;;;;;;;1.50;1.40;;;4.10;99.90;;;;;;2678923;28;20292;-69
2021/12/02 07:01:07;;;;;;;1.10;1.10;;;4.10;99.90;;;;;;2679154;28;20230;-69
2021/12/02 07:02:25;;;;;;;2.15;1.50;;;4.20;99.90;;;;;;2679599;28;20283;-69
2021/12/02 07:03:44;;;;;;;1.60;1.50;;;4.20;99.90;;;;;;2679423;28;20668;-69
2021/12/02 07:05:06;;;;;;;2.15;1.52;;;4.20;99.90;;;;;;2679445;28;20576;-69
2021/12/02 07:06:25;;;;;;;3.90;1.60;;;4.20;99.90;;;;;;2679737;28;20216;-69
2021/12/02 07:07:43;;;;;;;1.42;1.33;;;4.20;99.90;;;;;;2674702;28;20650;-69
2021/12/02 07:09:02;;;;;;;1.30;1.30;;;4.30;99.90;;;;;;2671254;28;20216;-69